createdAt,value
2022-10-17T00:03:06.113Z,21.46
2022-10-17T00:18:08.426Z,21.02
2022-10-17T00:33:10.765Z,20.4
2022-10-17T00:48:13.063Z,20.06
2022-10-17T01:03:15.367Z,18.95
2022-10-17T01:18:17.810Z,17.95
2022-10-17T01:33:20.196Z,17.33
2022-10-17T01:48:22.530Z,17.33
2022-10-17T02:03:24.817Z,16.4
2022-10-17T02:18:27.067Z,16.05
2022-10-17T02:33:29.479Z,15.6
2022-10-17T02:48:31.810Z,14.68
2022-10-17T03:03:34.131Z,15.22
2022-10-17T03:18:36.455Z,14.59
2022-10-17T03:33:38.769Z,13.94
2022-10-17T03:48:41.071Z,14.02
2022-10-17T04:03:43.558Z,13.74
2022-10-17T04:18:45.900Z,13.59
2022-10-17T04:33:48.177Z,13.65
2022-10-17T04:48:50.780Z,13.24
2022-10-17T05:03:53.110Z,13.02
2022-10-17T05:18:55.375Z,12.46
2022-10-17T05:33:57.670Z,12.8
2022-10-17T05:48:59.945Z,12.31
2022-10-17T06:04:02.249Z,12.47
2022-10-17T06:19:04.566Z,11.84
2022-10-17T06:34:06.857Z,11.81
2022-10-17T06:49:09.160Z,11.32
2022-10-17T07:04:11.478Z,11.48
2022-10-17T07:19:13.774Z,10.87
2022-10-17T07:34:16.125Z,11.25
2022-10-17T07:49:18.473Z,10.82
2022-10-17T08:04:20.764Z,10.76
2022-10-17T08:19:23.141Z,10.93
2022-10-17T08:34:25.418Z,10.59
2022-10-17T08:49:27.751Z,10.24
2022-10-17T09:19:32.493Z,10.01
2022-10-17T09:34:34.775Z,10.09
2022-10-17T09:49:37.012Z,9.62
2022-10-17T10:04:59.786Z,9.61
2022-10-17T10:20:05.480Z,9.36
2022-10-17T10:35:07.764Z,9.43
2022-10-17T10:50:10.058Z,9.38
2022-10-17T11:05:12.393Z,9.39
2022-10-17T11:20:14.716Z,9.35
2022-10-17T11:35:17.220Z,8.89
2022-10-17T12:05:51.866Z,8.92
2022-10-17T12:20:54.363Z,8.65
2022-10-17T12:35:56.664Z,8.34
2022-10-17T12:51:17.665Z,8.29
2022-10-17T13:06:33.564Z,8.41
2022-10-17T13:21:35.898Z,8
2022-10-17T13:36:38.201Z,7.89
2022-10-17T13:51:40.526Z,8.48
2022-10-17T14:06:44.983Z,8.1
2022-10-17T14:21:50.443Z,7.67
2022-10-17T14:36:52.743Z,8
2022-10-17T14:51:57.002Z,7.9
2022-10-17T15:07:09.576Z,8.01
2022-10-17T15:22:11.902Z,8.41
2022-10-17T15:37:14.153Z,9.19
2022-10-17T15:52:16.486Z,10.54
2022-10-17T16:07:18.825Z,9.94
2022-10-17T16:22:21.126Z,19.74
2022-10-17T16:37:23.642Z,24.53
2022-10-17T16:52:25.941Z,17.6
2022-10-17T17:07:28.600Z,21.72
2022-10-17T17:22:31.031Z,17.39
2022-10-17T17:37:33.501Z,14.77
2022-10-17T17:52:36.136Z,14.93
2022-10-17T18:07:38.398Z,15.46
2022-10-17T18:22:40.676Z,15.91
2022-10-17T18:37:43.029Z,15.72
2022-10-17T18:52:45.325Z,16.2
2022-10-17T19:07:47.615Z,17.1
2022-10-17T19:22:50.037Z,17.78
2022-10-17T19:37:52.422Z,18.83
2022-10-17T19:52:54.681Z,20.04
2022-10-17T20:07:57.007Z,20.8
2022-10-17T20:22:59.314Z,21.38
2022-10-17T20:38:01.619Z,21.4
2022-10-17T20:53:31.299Z,20.25
2022-10-17T21:08:37.761Z,20.3
2022-10-17T21:23:40.058Z,20.96
2022-10-17T21:38:42.331Z,21.76
2022-10-17T21:53:44.625Z,22.03
2022-10-17T22:08:47.071Z,22.21
2022-10-17T22:23:49.335Z,22.38
2022-10-17T22:38:51.653Z,22.21
2022-10-17T22:53:53.930Z,22.16
2022-10-17T23:08:56.183Z,22.43
2022-10-17T23:23:58.520Z,21.81
2022-10-17T23:39:00.998Z,21.18
2022-10-17T23:54:03.238Z,20.52
